Time;durP1;ratioP1;P1;durP2;ratioP2;P2;SDS_P1;SDS_P2;PMS_P1;PMS_P2;Temp;Humidity;BMP_temperature;BMP_pressure;BME280_temperature;BME280_humidity;BME280_pressure;Samples;Min_cycle;Max_cycle;Signal;HPM_P1;HPM_P2
2022/04/01 00:01:16;;;;;;;4.40;4.20;;;18.00;64.80;;;;;;5110505;27;44033;-70
2022/04/01 00:03:44;;;;;;;4.40;4.20;;;18.10;64.70;;;;;;5110153;27;43978;-70
2022/04/01 00:06:12;;;;;;;4.53;4.30;;;18.30;64.30;;;;;;5110633;27;43994;-70
2022/04/01 00:08:40;;;;;;;3.87;3.77;;;18.30;64.00;;;;;;5110900;27;43976;-69
2022/04/01 00:11:08;;;;;;;3.90;3.80;;;18.40;63.50;;;;;;5108165;27;44045;-70
2022/04/01 00:13:36;;;;;;;3.90;3.80;;;18.30;63.20;;;;;;5110505;27;44028;-70
2022/04/01 00:16:05;;;;;;;4.17;4.00;;;18.20;63.30;;;;;;5110326;27;43742;-69
2022/04/01 00:18:33;;;;;;;3.73;3.63;;;18.10;63.50;;;;;;5097469;27;44075;-70
2022/04/01 00:21:01;;;;;;;3.93;3.83;;;18.10;63.80;;;;;;5097072;27;43738;-70
2022/04/01 00:23:29;;;;;;;3.80;3.70;;;18.00;63.80;;;;;;5096920;27;43762;-70
2022/04/01 00:25:57;;;;;;;3.37;3.27;;;18.00;63.90;;;;;;5097044;27;43887;-70
2022/04/01 00:28:25;;;;;;;3.50;3.40;;;17.90;63.90;;;;;;5097573;27;43343;-70
2022/04/01 00:30:54;;;;;;;3.73;3.53;;;17.90;64.00;;;;;;5096962;27;43985;-69
2022/04/01 00:33:28;;;;;;;3.47;3.37;;;17.90;64.10;;;;;;5098343;27;43473;-69
2022/04/01 00:35:55;;;;;;;3.73;3.63;;;17.90;64.30;;;;;;5110073;27;43391;-70
2022/04/01 00:38:26;;;;;;;3.60;3.50;;;17.90;64.80;;;;;;5110437;27;43935;-70
2022/04/01 00:40:54;;;;;;;3.33;3.23;;;18.10;64.80;;;;;;5091169;27;46886;-70
2022/04/01 00:43:27;;;;;;;3.70;3.60;;;18.30;64.30;;;;;;5109756;27;44188;-70
2022/04/01 00:45:55;;;;;;;3.60;3.50;;;18.50;63.70;;;;;;5110091;27;43347;-71
2022/04/01 00:48:23;;;;;;;4.00;3.90;;;18.60;63.30;;;;;;5110327;27;44064;-70
2022/04/01 00:50:52;;;;;;;3.50;3.30;;;18.70;63.20;;;;;;5090942;27;43956;-70
2022/04/01 00:53:21;;;;;;;3.43;3.33;;;18.70;63.00;;;;;;5109690;27;44132;-70
2022/04/01 00:55:49;;;;;;;3.50;3.40;;;18.60;62.70;;;;;;5109861;27;44006;-70
2022/04/01 00:58:18;;;;;;;3.50;3.40;;;18.40;62.50;;;;;;5110419;27;44098;-70
2022/04/01 01:00:46;;;;;;;3.70;3.60;;;18.30;62.70;;;;;;5091052;27;46451;-71
2022/04/01 01:03:14;;;;;;;3.60;3.50;;;18.20;62.90;;;;;;5109227;27;44026;-69
2022/04/01 01:05:42;;;;;;;3.20;3.10;;;18.20;63.20;;;;;;5109664;27;43912;-70
2022/04/01 01:08:13;;;;;;;3.33;3.23;;;18.10;63.40;;;;;;5091511;27;43977;-69
2022/04/01 01:10:41;;;;;;;3.33;3.23;;;18.00;63.50;;;;;;5090767;27;46094;-70
2022/04/01 01:13:09;;;;;;;3.53;3.43;;;18.00;64.20;;;;;;5109052;27;44034;-70
2022/04/01 01:15:37;;;;;;;3.23;3.13;;;18.10;64.80;;;;;;5109483;27;44023;-70
2022/04/01 01:18:06;;;;;;;3.33;3.23;;;18.20;64.80;;;;;;5109387;27;43911;-69
2022/04/01 01:20:34;;;;;;;3.17;3.07;;;18.30;64.20;;;;;;5107091;27;44910;-69
2022/04/01 01:23:02;;;;;;;3.33;3.23;;;18.30;63.60;;;;;;5109000;27;44066;-70
2022/04/01 01:25:32;;;;;;;3.47;3.37;;;18.30;63.30;;;;;;5109471;27;43950;-69
2022/04/01 01:28:00;;;;;;;3.40;3.30;;;18.20;63.10;;;;;;5109722;27;43997;-71
2022/04/01 01:30:28;;;;;;;3.50;3.40;;;18.20;63.30;;;;;;5090435;27;45746;-71
2022/04/01 01:32:56;;;;;;;3.10;3.00;;;18.10;63.50;;;;;;5090330;27;44616;-69
2022/04/01 01:35:25;;;;;;;3.17;3.07;;;18.00;63.60;;;;;;5109134;27;43292;-69
2022/04/01 01:37:52;;;;;;;3.10;3.00;;;18.00;63.70;;;;;;5109529;27;43394;-69
2022/04/01 01:40:20;;;;;;;3.23;3.13;;;17.90;63.80;;;;;;5090097;27;46462;-69
2022/04/01 01:42:50;;;;;;;3.07;2.97;;;17.90;63.90;;;;;;5090285;27;45798;-69
2022/04/01 01:45:19;;;;;;;3.10;3.00;;;17.90;64.00;;;;;;5109336;27;44026;-70
2022/04/01 01:47:47;;;;;;;3.30;3.20;;;17.90;64.10;;;;;;5090957;27;43841;-70
2022/04/01 01:55:46;;;;;;;3.20;3.10;;;18.20;64.60;;;;;;5086129;27;44452;-70
2022/04/01 01:58:16;;;;;;;3.10;3.00;;;18.40;64.20;;;;;;5090533;27;44080;-70
2022/04/01 02:00:43;;;;;;;3.13;3.03;;;18.50;63.70;;;;;;5089215;27;45497;-70
2022/04/01 02:03:11;;;;;;;2.77;2.67;;;18.60;63.10;;;;;;5108423;27;43742;-69
2022/04/01 02:05:39;;;;;;;3.00;3.00;;;18.60;63.10;;;;;;5089901;27;43438;-70
2022/04/01 02:08:08;;;;;;;2.90;2.90;;;18.50;62.70;;;;;;5090406;27;43987;-70
2022/04/01 02:10:36;;;;;;;2.53;2.53;;;18.40;62.60;;;;;;5108478;27;43962;-70
2022/04/01 02:13:05;;;;;;;2.63;2.63;;;18.30;62.90;;;;;;5108502;27;43999;-70
2022/04/01 02:15:34;;;;;;;2.97;2.97;;;18.20;63.10;;;;;;5089960;27;43948;-68
2022/04/01 02:18:05;;;;;;;2.70;2.60;;;18.20;63.40;;;;;;5090216;27;44041;-70
2022/04/01 02:20:33;;;;;;;2.80;2.80;;;18.00;63.40;;;;;;5089559;27;43984;-69
2022/04/01 02:23:01;;;;;;;3.07;2.97;;;18.00;63.60;;;;;;5108128;27;43974;-69
2022/04/01 02:25:30;;;;;;;2.50;2.50;;;18.00;63.80;;;;;;5106446;27;44041;-70
2022/04/01 02:27:58;;;;;;;2.80;2.70;;;18.00;64.90;;;;;;5090061;27;43960;-69
2022/04/01 02:30:27;;;;;;;2.73;2.63;;;18.00;64.90;;;;;;5089538;27;43976;-69
2022/04/01 02:33:15;;;;;;;2.70;2.70;;;18.20;64.40;;;;;;5105039;27;44009;-70
2022/04/01 02:35:46;;;;;;;2.97;2.87;;;18.20;63.80;;;;;;5063512;27;43390;-70
2022/04/01 02:38:14;;;;;;;2.63;2.63;;;18.20;63.40;;;;;;5080426;27;44021;-70
2022/04/01 02:40:42;;;;;;;2.50;2.50;;;18.20;63.30;;;;;;5079944;27;44614;-70
2022/04/01 02:43:11;;;;;;;2.57;2.57;;;18.10;63.40;;;;;;5089174;27;43403;-69
2022/04/01 02:45:44;;;;;;;2.70;2.70;;;18.00;63.60;;;;;;5089395;27;43405;-69
2022/04/01 02:48:14;;;;;;;2.60;2.60;;;17.90;63.70;;;;;;5089934;27;43387;-69
2022/04/01 02:51:04;;;;;;;2.50;2.50;;;17.90;63.80;;;;;;5106851;27;44422;-69
2022/04/01 02:53:33;;;;;;;2.70;2.70;;;17.90;64.00;;;;;;5089221;27;44514;-70
2022/04/01 02:56:01;;;;;;;2.57;2.57;;;17.90;64.10;;;;;;5088888;27;43982;-69
2022/04/01 02:58:29;;;;;;;2.67;2.57;;;17.80;64.10;;;;;;5106210;27;44025;-70
2022/04/01 03:00:57;;;;;;;2.40;2.40;;;17.80;64.10;;;;;;5089247;27;45846;-69
2022/04/01 03:03:25;;;;;;;2.40;2.40;;;17.80;64.80;;;;;;5107531;27;44048;-69
2022/04/01 03:05:55;;;;;;;2.30;2.30;;;17.90;64.80;;;;;;5089427;27;44063;-70
2022/04/01 03:08:26;;;;;;;2.57;2.57;;;18.10;64.50;;;;;;5089369;27;43451;-69
2022/04/01 03:10:57;;;;;;;2.57;2.57;;;18.20;64.10;;;;;;5088003;27;44042;-70
2022/04/01 03:13:30;;;;;;;2.60;2.50;;;18.40;63.60;;;;;;5061883;28;43953;-69
2022/04/01 03:16:17;;;;;;;2.40;2.40;;;18.50;63.30;;;;;;5100307;27;43406;-70
2022/04/01 03:18:57;;;;;;;2.03;2.03;;;18.60;63.00;;;;;;5089631;27;43445;-70
2022/04/01 03:21:26;;;;;;;2.47;2.47;;;18.50;62.80;;;;;;5088915;27;44043;-71
2022/04/01 03:23:55;;;;;;;2.20;2.20;;;18.40;62.70;;;;;;5088338;27;43925;-70
2022/04/01 03:26:24;;;;;;;2.10;2.10;;;18.30;62.70;;;;;;5088499;27;43871;-70
2022/04/01 03:29:00;;;;;;;2.17;2.17;;;18.20;62.80;;;;;;5089134;27;43956;-69
2022/04/01 03:31:29;;;;;;;2.20;2.20;;;18.10;63.10;;;;;;5088203;27;45892;-70
2022/04/01 03:33:59;;;;;;;2.30;2.30;;;18.10;63.30;;;;;;5088619;27;43431;-70
2022/04/01 03:36:27;;;;;;;2.67;2.57;;;18.00;63.30;;;;;;5088760;27;43956;-69
2022/04/01 03:38:57;;;;;;;2.30;2.30;;;18.00;63.60;;;;;;5089375;27;43562;-70
2022/04/01 03:41:33;;;;;;;2.70;2.50;;;18.00;64.60;;;;;;5088352;27;46369;-71
2022/04/01 03:44:03;;;;;;;4.93;2.93;;;18.10;64.50;;;;;;5088100;27;44698;-69
2022/04/01 03:46:47;;;;;;;7.40;3.27;;;18.20;63.90;;;;;;5088472;27;44079;-69
2022/04/01 03:49:18;;;;;;;3.80;3.27;;;18.30;63.80;;;;;;5107478;27;43979;-69
2022/04/01 03:51:46;;;;;;;5.53;3.40;;;18.20;63.50;;;;;;5088485;27;44049;-70
2022/04/01 03:54:16;;;;;;;3.80;3.50;;;18.20;63.10;;;;;;5088208;27;45042;-70
2022/04/01 03:57:22;;;;;;;3.90;3.50;;;18.10;63.20;;;;;;5106499;27;44065;-69
2022/04/01 04:00:29;;;;;;;8.10;4.20;;;18.00;63.30;;;;;;5106768;27;43472;-69
2022/04/01 04:02:57;;;;;;;5.90;4.23;;;18.00;63.60;;;;;;5088084;27;46631;-69
2022/04/01 04:05:30;;;;;;;7.13;4.27;;;18.00;63.70;;;;;;5087922;27;44002;-69
2022/04/01 04:07:58;;;;;;;9.77;4.50;;;17.90;63.70;;;;;;5088147;27;43953;-69
2022/04/01 04:10:28;;;;;;;7.27;4.50;;;17.90;63.80;;;;;;5088549;27;43478;-70
2022/04/01 04:13:15;;;;;;;6.93;4.40;;;17.90;63.90;;;;;;5103406;27;43876;-69
2022/04/01 04:15:48;;;;;;;5.63;4.53;;;17.80;64.10;;;;;;5087852;27;43390;-69
2022/04/01 04:18:17;;;;;;;7.67;4.70;;;17.90;64.80;;;;;;5088561;27;44369;-70
2022/04/01 04:20:54;;;;;;;10.40;5.23;;;18.00;64.60;;;;;;5088805;27;44193;-70
2022/04/01 04:23:26;;;;;;;6.33;4.40;;;18.20;64.20;;;;;;5080153;27;44071;-69
2022/04/01 04:26:01;;;;;;;8.20;4.70;;;18.40;63.60;;;;;;5082654;27;44050;-69
2022/04/01 04:28:35;;;;;;;9.17;4.87;;;18.50;63.10;;;;;;5091769;27;43448;-69
2022/04/01 04:31:26;;;;;;;10.13;5.10;;;18.50;62.90;;;;;;5110087;27;43987;-70
2022/04/01 04:34:12;;;;;;;6.87;4.57;;;18.50;62.90;;;;;;5109924;27;43813;-69
2022/04/01 04:36:42;;;;;;;7.07;4.33;;;18.40;62.80;;;;;;5091072;27;44553;-70
2022/04/01 04:39:15;;;;;;;9.23;4.70;;;18.30;62.60;;;;;;5091084;27;43430;-70
2022/04/01 04:41:46;;;;;;;6.23;4.30;;;18.20;62.80;;;;;;5091886;27;44039;-70
2022/04/01 04:44:14;;;;;;;6.57;4.50;;;18.10;63.00;;;;;;5091119;27;44157;-69
2022/04/01 04:46:42;;;;;;;6.27;4.60;;;18.10;63.20;;;;;;5091162;27;44888;-69
2022/04/01 04:49:10;;;;;;;6.30;4.37;;;18.00;63.30;;;;;;5091229;27;43979;-69
2022/04/01 04:51:44;;;;;;;7.53;4.53;;;18.00;63.50;;;;;;5091654;27;43576;-70
2022/04/01 04:54:20;;;;;;;8.37;4.63;;;17.90;64.50;;;;;;5090878;27;44042;-70
2022/04/01 04:57:05;;;;;;;6.27;4.47;;;18.00;64.60;;;;;;5091087;27;44006;-70
2022/04/01 04:59:34;;;;;;;7.13;4.60;;;18.10;64.40;;;;;;5064758;27;44058;-70
2022/04/01 05:02:06;;;;;;;6.17;4.50;;;18.30;63.90;;;;;;5091474;27;43940;-69
2022/04/01 05:04:55;;;;;;;5.87;4.40;;;18.20;63.50;;;;;;5090756;27;43950;-70
2022/04/01 05:07:32;;;;;;;5.40;4.70;;;18.10;63.00;;;;;;5090641;27;44546;-70
2022/04/01 05:10:26;;;;;;;6.40;4.37;;;18.10;63.20;;;;;;5097658;27;43857;-69
2022/04/01 05:12:58;;;;;;;4.47;4.00;;;18.00;63.30;;;;;;5091335;27;44047;-70
2022/04/01 05:15:52;;;;;;;7.13;4.57;;;18.00;63.60;;;;;;5098089;27;44738;-70
2022/04/01 05:18:25;;;;;;;6.10;4.40;;;17.90;63.60;;;;;;5090706;27;44809;-69
2022/04/01 05:20:55;;;;;;;4.87;4.43;;;17.90;63.70;;;;;;5077950;27;44048;-70
2022/04/01 05:23:31;;;;;;;5.60;4.30;;;17.90;63.80;;;;;;5081976;27;44205;-70
2022/04/01 05:26:04;;;;;;;6.80;4.03;;;17.80;63.80;;;;;;5090589;27;44067;-70
2022/04/01 05:28:59;;;;;;;6.07;4.37;;;17.80;63.90;;;;;;5105898;27;43434;-70
2022/04/01 05:31:33;;;;;;;4.93;4.50;;;17.80;64.70;;;;;;5090486;27;43460;-69
2022/04/01 05:34:08;;;;;;;7.33;4.33;;;18.00;64.60;;;;;;5080500;27;43972;-70
2022/04/01 05:36:43;;;;;;;6.87;4.40;;;18.20;64.40;;;;;;5104468;27;43986;-70
2022/04/01 05:39:12;;;;;;;4.83;4.33;;;18.40;63.80;;;;;;5090520;27;44021;-70
2022/04/01 05:41:48;;;;;;;3.93;3.60;;;18.50;63.20;;;;;;5090867;27;43961;-69
2022/04/01 05:44:18;;;;;;;4.10;3.70;;;18.50;63.10;;;;;;5091233;27;43566;-69
2022/04/01 05:46:47;;;;;;;4.07;3.73;;;18.40;63.00;;;;;;5090591;27;45381;-70
2022/04/01 05:49:17;;;;;;;4.77;4.30;;;18.30;62.70;;;;;;5090387;27;45635;-70
2022/04/01 05:51:46;;;;;;;5.57;3.90;;;18.20;62.60;;;;;;5090831;27;44004;-69
2022/04/01 05:54:15;;;;;;;4.73;3.93;;;18.10;62.80;;;;;;5109349;27;44090;-70
2022/04/01 05:56:46;;;;;;;4.77;3.40;;;18.10;63.10;;;;;;5090292;27;44065;-70
2022/04/01 05:59:18;;;;;;;5.47;4.20;;;18.00;63.30;;;;;;5090167;27;45863;-69
2022/04/01 06:01:49;;;;;;;4.23;3.80;;;18.00;63.50;;;;;;5108347;27;44083;-70
2022/04/01 06:04:34;;;;;;;5.73;3.90;;;17.90;63.50;;;;;;5090778;27;43978;-69
2022/04/01 06:07:09;;;;;;;4.40;3.73;;;17.90;64.10;;;;;;5079143;27;44062;-69
2022/04/01 06:09:49;;;;;;;4.43;3.80;;;17.90;64.50;;;;;;5089947;27;44728;-70
2022/04/01 06:13:03;;;;;;;4.20;3.80;;;18.10;64.60;;;;;;5073730;27;43901;-69
2022/04/01 06:15:59;;;;;;;4.93;4.23;;;18.20;63.90;;;;;;5106498;27;43356;-70
2022/04/01 06:18:44;;;;;;;4.00;3.70;;;18.20;63.50;;;;;;5105057;27;43840;-69
2022/04/01 06:21:15;;;;;;;3.83;3.53;;;18.20;63.20;;;;;;5089635;27;44210;-70
2022/04/01 06:23:52;;;;;;;3.77;3.47;;;18.10;63.20;;;;;;5090008;27;44095;-70
2022/04/01 06:26:20;;;;;;;4.20;3.80;;;18.00;63.40;;;;;;5090387;27;44235;-69
2022/04/01 06:28:51;;;;;;;3.20;2.90;;;17.90;63.50;;;;;;5108731;27;43768;-69
2022/04/01 06:31:22;;;;;;;4.40;3.67;;;17.90;63.70;;;;;;5089910;27;45129;-69
2022/04/01 06:33:55;;;;;;;3.77;3.47;;;17.90;63.80;;;;;;5090023;27;44084;-69
2022/04/01 06:36:31;;;;;;;4.43;3.70;;;17.80;63.90;;;;;;5105377;27;44029;-69
2022/04/01 06:39:02;;;;;;;4.10;3.70;;;17.80;64.00;;;;;;5096027;27;43915;-70
2022/04/01 06:41:37;;;;;;;3.57;3.27;;;17.80;64.00;;;;;;5089589;27;43975;-71
2022/04/01 06:44:18;;;;;;;3.77;3.47;;;17.80;64.60;;;;;;5089761;27;43898;-70
2022/04/01 06:47:07;;;;;;;3.57;3.27;;;17.90;64.80;;;;;;5104888;27;43999;-69
2022/04/01 06:49:35;;;;;;;3.90;3.60;;;18.10;64.40;;;;;;5089233;27;44042;-69
2022/04/01 06:52:09;;;;;;;3.63;3.23;;;18.30;63.90;;;;;;5092722;27;43380;-70
2022/04/01 06:54:56;;;;;;;3.30;3.10;;;18.40;63.30;;;;;;5105959;27;43350;-70
2022/04/01 06:57:44;;;;;;;5.43;3.63;;;18.50;62.90;;;;;;5093450;27;43773;-70
2022/04/01 07:00:23;;;;;;;4.07;3.70;;;18.40;62.80;;;;;;5089050;27;43990;-70
2022/04/01 07:02:52;;;;;;;3.47;3.27;;;18.30;62.60;;;;;;5108165;27;43863;-69
2022/04/01 07:05:20;;;;;;;3.43;3.20;;;18.20;62.70;;;;;;5108113;27;43808;-69
2022/04/01 07:07:48;;;;;;;3.40;3.20;;;18.10;62.90;;;;;;5090154;27;44039;-70
2022/04/01 07:10:16;;;;;;;3.53;3.23;;;18.10;63.20;;;;;;5107973;27;44996;-69
2022/04/01 07:12:44;;;;;;;3.43;3.23;;;18.00;63.30;;;;;;5089385;27;44860;-69
2022/04/01 07:15:13;;;;;;;3.63;3.43;;;17.90;63.50;;;;;;5107889;27;43438;-70
2022/04/01 07:17:40;;;;;;;3.17;2.97;;;17.90;63.60;;;;;;5108233;27;43895;-69
2022/04/01 07:20:12;;;;;;;3.70;3.40;;;17.90;64.50;;;;;;5107740;27;44093;-70
2022/04/01 07:22:48;;;;;;;3.40;3.20;;;17.90;64.60;;;;;;5107873;27;43869;-69
2022/04/01 07:25:16;;;;;;;3.30;3.00;;;18.10;64.40;;;;;;5107766;27;43927;-70
2022/04/01 07:27:44;;;;;;;3.23;3.10;;;18.20;64.00;;;;;;5108038;27;43770;-70
2022/04/01 07:30:12;;;;;;;2.97;2.87;;;18.20;63.80;;;;;;5105709;27;44106;-70
2022/04/01 07:32:40;;;;;;;3.33;3.03;;;18.10;63.30;;;;;;5107142;27;43951;-70
2022/04/01 07:35:11;;;;;;;4.17;3.40;;;18.10;63.20;;;;;;5089140;27;43379;-69
2022/04/01 07:37:42;;;;;;;3.20;3.00;;;18.00;63.30;;;;;;5107846;27;43943;-69
2022/04/01 07:40:22;;;;;;;3.27;3.07;;;18.00;63.60;;;;;;5107406;27;44065;-69
2022/04/01 07:42:50;;;;;;;3.10;2.90;;;17.90;63.70;;;;;;5107516;27;44028;-69
2022/04/01 07:45:19;;;;;;;2.90;2.70;;;17.90;63.80;;;;;;5107772;27;44049;-69
2022/04/01 07:47:47;;;;;;;2.93;2.77;;;17.80;63.90;;;;;;5089183;27;44151;-70
2022/04/01 07:50:17;;;;;;;2.97;2.80;;;17.80;64.00;;;;;;5107175;27;43745;-69
2022/04/01 07:52:45;;;;;;;3.00;2.90;;;17.80;64.10;;;;;;5105250;27;43435;-69
2022/04/01 07:55:14;;;;;;;3.00;2.90;;;17.70;64.00;;;;;;5106734;27;44001;-70
2022/04/01 07:57:43;;;;;;;3.17;2.97;;;17.80;64.80;;;;;;5108303;27;44086;-70
2022/04/01 08:00:14;;;;;;;2.63;2.53;;;17.80;64.90;;;;;;5110919;27;45004;-69
2022/04/01 08:02:42;;;;;;;3.10;2.90;;;18.00;64.50;;;;;;5097416;27;43979;-70
2022/04/01 08:05:10;;;;;;;2.90;2.80;;;18.20;64.00;;;;;;5110917;27;43470;-69
2022/04/01 08:07:42;;;;;;;3.13;2.93;;;18.40;63.40;;;;;;5083000;27;43999;-70
2022/04/01 08:10:10;;;;;;;2.63;2.53;;;18.40;63.00;;;;;;5110832;27;43935;-70
2022/04/01 08:12:42;;;;;;;3.07;2.93;;;18.50;63.00;;;;;;5110892;27;43968;-70
2022/04/01 08:15:11;;;;;;;2.83;2.63;;;18.30;62.70;;;;;;5110826;27;43883;-69
2022/04/01 08:17:39;;;;;;;2.93;2.83;;;18.20;62.60;;;;;;5092056;27;44027;-69
2022/04/01 08:20:09;;;;;;;2.77;2.67;;;18.10;62.90;;;;;;5110334;27;44052;-69
2022/04/01 08:22:37;;;;;;;2.90;2.80;;;18.10;63.20;;;;;;5110427;27;44032;-69
2022/04/01 08:25:08;;;;;;;2.83;2.63;;;18.00;63.30;;;;;;5091917;27;43430;-69
2022/04/01 08:27:37;;;;;;;2.63;2.50;;;17.90;63.50;;;;;;5110654;27;44078;-70
2022/04/01 08:30:06;;;;;;;2.90;2.80;;;17.90;63.70;;;;;;5110567;27;43887;-70
2022/04/01 08:32:36;;;;;;;2.90;2.77;;;17.80;63.70;;;;;;5110195;27;43978;-69
2022/04/01 08:35:04;;;;;;;3.10;2.90;;;17.80;64.70;;;;;;5110406;27;44005;-70
2022/04/01 08:37:32;;;;;;;2.83;2.73;;;17.90;64.80;;;;;;5091864;27;43869;-70
2022/04/01 08:40:00;;;;;;;3.20;3.00;;;18.10;64.60;;;;;;5110337;27;43962;-70
2022/04/01 08:42:31;;;;;;;3.00;2.90;;;18.10;63.80;;;;;;5110169;27;43998;-70
2022/04/01 08:44:59;;;;;;;3.30;3.00;;;18.10;63.60;;;;;;5110243;27;44000;-69
2022/04/01 08:47:29;;;;;;;2.90;2.80;;;18.10;63.20;;;;;;5110154;27;44197;-69
2022/04/01 08:49:57;;;;;;;3.07;2.97;;;18.00;63.20;;;;;;5091349;27;45644;-70
2022/04/01 08:52:25;;;;;;;2.70;2.60;;;18.00;63.40;;;;;;5091286;27;45097;-69
2022/04/01 08:54:53;;;;;;;2.90;2.70;;;17.90;63.50;;;;;;5109592;27;43966;-70
2022/04/01 08:57:21;;;;;;;2.87;2.77;;;17.80;63.60;;;;;;5110446;27;43999;-70
2022/04/01 08:59:51;;;;;;;2.70;2.60;;;17.80;63.80;;;;;;5110122;27;43742;-69
2022/04/01 09:02:19;;;;;;;3.07;2.97;;;17.80;63.90;;;;;;5110205;27;43958;-69
2022/04/01 09:04:51;;;;;;;2.60;2.50;;;17.80;64.00;;;;;;5091547;27;43387;-70
2022/04/01 09:07:19;;;;;;;2.80;2.70;;;17.70;64.00;;;;;;5110363;27;43451;-69
2022/04/01 09:09:47;;;;;;;3.00;2.90;;;17.70;64.00;;;;;;5089881;27;46471;-70
2022/04/01 09:12:16;;;;;;;3.10;3.00;;;17.70;64.80;;;;;;5109764;27;43855;-70
2022/04/01 09:14:52;;;;;;;3.00;2.90;;;17.80;64.70;;;;;;5109821;27;44002;-69
2022/04/01 09:17:20;;;;;;;2.90;2.80;;;18.00;64.30;;;;;;5110146;27;43388;-69
2022/04/01 09:19:49;;;;;;;2.87;2.77;;;18.20;63.80;;;;;;5109721;27;43993;-70
2022/04/01 09:22:21;;;;;;;2.90;2.80;;;18.30;63.40;;;;;;5109924;27;43505;-70
2022/04/01 09:24:54;;;;;;;3.10;3.00;;;18.40;63.20;;;;;;5110090;27;43921;-71
2022/04/01 09:27:37;;;;;;;2.63;2.53;;;18.30;63.60;;;;;;5096678;27;43555;-69
2022/04/01 09:30:10;;;;;;;2.90;2.80;;;18.20;62.60;;;;;;5100853;27;43991;-70
2022/04/01 09:32:39;;;;;;;2.70;2.60;;;18.10;62.70;;;;;;5090468;27;45327;-69
2022/04/01 09:35:09;;;;;;;2.83;2.73;;;18.10;63.00;;;;;;5109478;27;43940;-70
2022/04/01 09:37:39;;;;;;;2.57;2.47;;;18.00;63.20;;;;;;5109619;27;44044;-69
2022/04/01 09:40:07;;;;;;;2.93;2.80;;;17.90;63.30;;;;;;5109219;27;43911;-70
2022/04/01 09:42:36;;;;;;;3.03;2.93;;;17.90;63.50;;;;;;5108956;27;43885;-69
2022/04/01 09:45:04;;;;;;;2.80;2.70;;;17.80;63.60;;;;;;5090932;27;44003;-69
2022/04/01 09:47:38;;;;;;;3.40;3.20;;;17.80;64.30;;;;;;5109602;27;43950;-70
2022/04/01 09:50:14;;;;;;;3.80;3.50;;;17.80;63.30;;;;;;5109385;27;43951;-69
2022/04/01 09:52:42;;;;;;;2.97;2.87;;;18.00;63.90;;;;;;5108990;27;44010;-69
2022/04/01 09:55:10;;;;;;;3.23;3.03;;;18.10;63.50;;;;;;5109052;27;44063;-70
2022/04/01 09:57:38;;;;;;;2.90;2.80;;;18.10;63.20;;;;;;5109224;27;44042;-70
2022/04/01 10:00:09;;;;;;;2.97;2.87;;;18.10;62.70;;;;;;5108904;27;43940;-70
2022/04/01 10:02:41;;;;;;;2.80;2.70;;;18.00;62.70;;;;;;5109054;27;43402;-69
2022/04/01 10:05:10;;;;;;;3.00;2.90;;;17.90;62.90;;;;;;5095971;27;43376;-69
2022/04/01 10:07:37;;;;;;;3.17;3.07;;;17.90;63.10;;;;;;5096159;27;43919;-69
2022/04/01 10:10:07;;;;;;;3.07;2.97;;;17.80;63.20;;;;;;5095739;27;44142;-70
2022/04/01 10:12:41;;;;;;;3.03;2.93;;;17.80;63.40;;;;;;5095841;27;43982;-70
2022/04/01 10:15:10;;;;;;;2.93;2.73;;;17.70;63.40;;;;;;5108669;27;43994;-70
2022/04/01 10:17:57;;;;;;;2.70;2.60;;;17.80;63.70;;;;;;5109173;27;43955;-69
2022/04/01 10:20:29;;;;;;;2.70;2.60;;;17.70;63.70;;;;;;5107922;27;44787;-70
2022/04/01 10:22:58;;;;;;;2.90;2.80;;;17.70;63.70;;;;;;5108431;27;44018;-69
2022/04/01 10:25:36;;;;;;;2.93;2.83;;;17.70;64.20;;;;;;5090082;27;44121;-69
2022/04/01 10:28:05;;;;;;;2.80;2.70;;;17.80;64.70;;;;;;5108922;27;43918;-70
2022/04/01 10:30:35;;;;;;;2.87;2.70;;;17.90;64.10;;;;;;5108246;27;44031;-70
2022/04/01 10:33:07;;;;;;;2.93;2.83;;;18.10;63.60;;;;;;5108185;27;44108;-70
2022/04/01 10:35:37;;;;;;;2.80;2.70;;;18.30;63.20;;;;;;5095650;27;44058;-70
2022/04/01 10:38:19;;;;;;;2.67;2.57;;;18.40;62.90;;;;;;5108829;27;43820;-70
2022/04/01 10:40:49;;;;;;;2.53;2.43;;;18.40;62.80;;;;;;5108455;27;44063;-70
2022/04/01 10:43:18;;;;;;;2.40;2.40;;;18.30;62.50;;;;;;5108270;27;43999;-70
2022/04/01 10:46:00;;;;;;;2.53;2.43;;;18.20;62.40;;;;;;5108787;27;44066;-69
2022/04/01 10:54:06;;;;;;;2.50;2.40;;;17.90;63.00;;;;;;5108001;27;43976;-70
2022/04/01 10:56:36;;;;;;;2.40;2.40;;;17.90;63.20;;;;;;5108295;27;43923;-70
2022/04/01 10:59:07;;;;;;;2.60;2.50;;;17.80;63.40;;;;;;5108084;27;43990;-69
2022/04/01 11:01:35;;;;;;;2.60;2.50;;;17.80;63.50;;;;;;5107833;27;44127;-70
2022/04/01 11:04:24;;;;;;;2.40;2.30;;;17.80;64.40;;;;;;5107799;27;43941;-69
2022/04/01 11:06:52;;;;;;;2.67;2.57;;;17.90;64.40;;;;;;5108189;27;43360;-69
2022/04/01 11:09:34;;;;;;;2.70;2.60;;;18.00;64.10;;;;;;5108465;27;43989;-71
2022/04/01 11:12:25;;;;;;;2.73;2.63;;;18.10;63.80;;;;;;5107921;27;44804;-70
2022/04/01 11:15:18;;;;;;;2.43;2.33;;;18.00;63.00;;;;;;5102311;27;43426;-70
2022/04/01 11:18:06;;;;;;;2.43;2.33;;;18.00;62.90;;;;;;5108075;27;44103;-69
2022/04/01 11:20:37;;;;;;;2.67;2.57;;;17.90;63.00;;;;;;5108235;27;43344;-69
2022/04/01 11:23:07;;;;;;;2.40;2.30;;;17.90;63.30;;;;;;5107607;27;44105;-70
2022/04/01 11:25:50;;;;;;;2.40;2.40;;;17.80;63.30;;;;;;5107642;27;43518;-69
2022/04/01 11:28:18;;;;;;;2.50;2.40;;;17.80;63.50;;;;;;5107945;27;43860;-71
2022/04/01 11:31:02;;;;;;;2.63;2.53;;;17.70;63.60;;;;;;5108390;27;43407;-70
2022/04/01 11:33:30;;;;;;;2.40;2.40;;;17.70;63.70;;;;;;5106429;27;44047;-70
2022/04/01 11:35:59;;;;;;;2.27;2.27;;;17.70;63.70;;;;;;5107487;27;43949;-69
2022/04/01 11:38:28;;;;;;;2.00;2.00;;;17.70;63.80;;;;;;5107647;27;44013;-69
2022/04/01 11:41:00;;;;;;;2.30;2.30;;;17.70;64.50;;;;;;5108009;27;43443;-69
2022/04/01 11:43:28;;;;;;;2.40;2.40;;;17.80;64.50;;;;;;5107227;27;43932;-70
2022/04/01 11:45:58;;;;;;;2.27;2.10;;;18.00;64.20;;;;;;5107255;27;43965;-70
2022/04/01 11:48:29;;;;;;;2.63;2.53;;;18.10;63.50;;;;;;5107662;27;43904;-69
2022/04/01 11:50:59;;;;;;;2.10;2.10;;;18.30;63.30;;;;;;5107601;27;43741;-70
2022/04/01 11:53:29;;;;;;;2.20;2.20;;;18.40;62.90;;;;;;5106921;27;43983;-70
2022/04/01 11:55:58;;;;;;;2.20;2.20;;;18.30;62.70;;;;;;5106619;27;43856;-69
2022/04/01 11:58:26;;;;;;;2.10;2.10;;;18.20;62.50;;;;;;5088823;27;44053;-69
2022/04/01 12:00:54;;;;;;;2.20;2.20;;;18.20;62.40;;;;;;5107833;27;43541;-70
2022/04/01 12:03:24;;;;;;;2.43;2.43;;;18.10;62.60;;;;;;5107095;27;43923;-69
2022/04/01 12:05:52;;;;;;;2.00;2.00;;;18.00;62.80;;;;;;5107218;27;43942;-70
2022/04/01 12:11:09;;;;;;;2.07;2.00;;;17.80;63.10;;;;;;5107521;27;43952;-70
2022/04/01 12:13:42;;;;;;;2.10;2.10;;;17.80;63.30;;;;;;5088208;27;46015;-69
2022/04/01 12:16:10;;;;;;;3.30;2.20;;;17.80;63.50;;;;;;5106858;27;44053;-70
2022/04/01 12:18:40;;;;;;;2.23;2.23;;;17.80;64.40;;;;;;5107155;27;44017;-70
2022/04/01 12:21:08;;;;;;;2.33;2.33;;;17.90;64.30;;;;;;5088942;27;43548;-69
2022/04/01 12:23:37;;;;;;;2.33;2.33;;;18.00;63.90;;;;;;5106862;27;45128;-69
2022/04/01 12:26:05;;;;;;;2.13;2.13;;;18.10;63.60;;;;;;5088318;27;44010;-69
2022/04/01 12:28:37;;;;;;;2.30;2.20;;;18.10;63.10;;;;;;5106954;27;43945;-69
2022/04/01 12:31:05;;;;;;;2.10;2.00;;;18.00;62.90;;;;;;5107295;27;43347;-70
2022/04/01 12:33:33;;;;;;;2.40;2.30;;;17.90;63.00;;;;;;5106676;27;43940;-70
2022/04/01 12:36:02;;;;;;;2.07;1.97;;;17.80;63.20;;;;;;5106807;27;43939;-69
2022/04/01 12:38:31;;;;;;;2.27;2.27;;;17.80;64.10;;;;;;5106863;27;43970;-69
2022/04/01 12:41:01;;;;;;;2.20;2.20;;;17.80;63.50;;;;;;5106866;27;44075;-69
2022/04/01 12:43:39;;;;;;;2.10;2.10;;;17.70;63.50;;;;;;5106985;27;43764;-70
2022/04/01 12:46:08;;;;;;;2.20;2.20;;;17.70;63.70;;;;;;5110334;27;44001;-70
2022/04/01 12:48:47;;;;;;;1.90;1.90;;;17.70;63.80;;;;;;5110156;27;43955;-69
2022/04/01 12:51:19;;;;;;;2.10;2.10;;;17.70;63.90;;;;;;5099479;27;43377;-69
2022/04/01 12:54:01;;;;;;;2.07;2.07;;;17.60;64.10;;;;;;5109830;27;44052;-70
2022/04/01 12:56:33;;;;;;;2.10;2.10;;;17.70;64.60;;;;;;5109676;27;43875;-70
2022/04/01 12:59:04;;;;;;;2.13;2.10;;;17.90;64.30;;;;;;5091651;27;44064;-70
2022/04/01 13:01:33;;;;;;;1.93;1.93;;;18.00;63.90;;;;;;5110396;27;43978;-69
2022/04/01 13:04:01;;;;;;;2.07;2.07;;;18.20;63.40;;;;;;5109766;27;43912;-70
2022/04/01 13:06:29;;;;;;;2.10;2.10;;;18.30;62.90;;;;;;5110004;27;43952;-70
2022/04/01 13:09:07;;;;;;;2.10;2.10;;;18.30;62.70;;;;;;5110008;27;44017;-69
2022/04/01 13:11:38;;;;;;;1.90;1.90;;;18.20;62.50;;;;;;5110332;27;43465;-69
2022/04/01 13:14:07;;;;;;;2.00;2.00;;;18.10;62.50;;;;;;5090644;27;46342;-69
2022/04/01 13:16:36;;;;;;;2.20;2.20;;;18.00;62.70;;;;;;5109829;27;43949;-69
2022/04/01 13:19:23;;;;;;;2.17;2.07;;;17.90;62.90;;;;;;5096814;27;43455;-69
2022/04/01 13:21:51;;;;;;;2.20;2.10;;;17.90;63.10;;;;;;5102464;27;43880;-69
2022/04/01 13:24:20;;;;;;;2.10;2.03;;;17.80;63.30;;;;;;5109674;27;44916;-70
2022/04/01 13:26:49;;;;;;;1.97;1.97;;;17.70;63.30;;;;;;5109496;27;43757;-70